createdAt,value
2023-02-27T00:01:48.880Z,76.10
2023-02-27T00:04:16.238Z,77.30
2023-02-27T00:06:43.537Z,79.20
2023-02-27T00:09:10.719Z,81.00
2023-02-27T00:11:38.778Z,82.10
2023-02-27T00:14:06.275Z,82.00
2023-02-27T00:16:34.465Z,81.70
2023-02-27T00:19:04.857Z,81.50
2023-02-27T00:21:33.312Z,79.40
2023-02-27T00:24:01.452Z,78.30
2023-02-27T00:26:28.780Z,79.50
2023-02-27T00:28:56.116Z,81.40
2023-02-27T00:31:23.463Z,80.00
2023-02-27T00:33:50.776Z,81.40
2023-02-27T00:36:18.083Z,79.10
2023-02-27T00:38:46.079Z,80.30
2023-02-27T00:41:13.477Z,79.90
2023-02-27T00:43:40.805Z,78.60
2023-02-27T00:46:08.212Z,79.40
2023-02-27T00:48:35.519Z,81.90
2023-02-27T00:51:02.953Z,82.90
2023-02-27T00:53:30.165Z,84.50
2023-02-27T00:55:57.578Z,85.40
2023-02-27T00:58:24.821Z,87.10
2023-02-27T01:00:52.434Z,87.80
2023-02-27T01:03:19.855Z,89.00
2023-02-27T01:05:47.227Z,88.90
2023-02-27T01:08:14.758Z,88.00
2023-02-27T01:10:42.059Z,89.70
2023-02-27T01:13:11.213Z,90.50
2023-02-27T01:15:38.770Z,91.40
2023-02-27T01:18:06.074Z,93.70
2023-02-27T01:20:33.415Z,91.90
2023-02-27T01:23:00.766Z,91.30
2023-02-27T01:25:28.105Z,93.50
2023-02-27T01:27:55.300Z,95.40
2023-02-27T01:30:22.770Z,92.40
2023-02-27T01:32:50.083Z,92.80
2023-02-27T01:35:18.072Z,94.00
2023-02-27T01:37:45.383Z,94.60
2023-02-27T01:40:13.451Z,93.80
2023-02-27T01:42:40.772Z,92.60
2023-02-27T01:45:30.676Z,93.20
2023-02-27T01:48:07.593Z,92.60
2023-02-27T01:50:38.230Z,92.30
2023-02-27T01:53:06.861Z,93.10
2023-02-27T01:55:38.160Z,93.90
2023-02-27T01:58:08.397Z,94.90
2023-02-27T02:00:37.127Z,95.30
2023-02-27T02:03:27.820Z,95.60
2023-02-27T02:05:58.291Z,96.60
2023-02-27T02:08:27.410Z,97.30
2023-02-27T02:10:57.910Z,97.60
2023-02-27T02:13:26.123Z,97.30
2023-02-27T02:16:30.671Z,97.40
2023-02-27T02:19:34.904Z,97.90
2023-02-27T02:22:18.585Z,98.10
2023-02-27T02:25:15.050Z,98.80
2023-02-27T02:27:56.744Z,99.60
2023-02-27T02:30:51.265Z,97.50
2023-02-27T02:33:57.292Z,98.10
2023-02-27T02:37:02.263Z,98.10
2023-02-27T02:39:38.178Z,99.90
2023-02-27T02:42:15.052Z,99.90
2023-02-27T02:45:02.127Z,99.90
2023-02-27T02:47:45.710Z,99.90
2023-02-27T02:50:28.855Z,99.90
2023-02-27T02:53:37.277Z,99.90
2023-02-27T02:56:34.132Z,99.60
2023-02-27T02:59:14.097Z,98.20
2023-02-27T03:01:48.048Z,98.10
2023-02-27T03:04:21.262Z,98.00
2023-02-27T03:06:58.045Z,98.70
2023-02-27T03:09:37.890Z,99.90
2023-02-27T03:12:10.730Z,99.90
2023-02-27T03:14:48.495Z,99.90
2023-02-27T03:17:23.411Z,99.90
2023-02-27T03:19:56.673Z,99.90
2023-02-27T03:22:32.728Z,99.90
2023-02-27T03:25:02.613Z,99.90
2023-02-27T03:27:38.616Z,99.90
2023-02-27T03:30:16.415Z,99.90
2023-02-27T03:33:01.875Z,99.90
2023-02-27T03:35:44.491Z,99.90
2023-02-27T03:38:23.431Z,99.90
2023-02-27T03:41:10.999Z,99.90
2023-02-27T03:43:53.101Z,99.90
2023-02-27T03:46:26.879Z,99.90
2023-02-27T03:48:54.675Z,99.90
2023-02-27T03:51:24.580Z,99.90
2023-02-27T03:54:01.768Z,99.90
2023-02-27T03:56:44.601Z,99.90
2023-02-27T03:59:12.033Z,99.90
2023-02-27T04:01:45.747Z,99.90
2023-02-27T04:04:16.004Z,99.90
2023-02-27T04:07:23.360Z,99.90
2023-02-27T04:10:19.929Z,99.90
2023-02-27T04:13:08.583Z,99.90
2023-02-27T04:16:03.612Z,99.90
2023-02-27T04:18:58.982Z,99.90
2023-02-27T04:21:47.570Z,99.90
2023-02-27T04:24:39.652Z,99.90
2023-02-27T04:27:30.978Z,99.90
2023-02-27T04:30:10.282Z,99.90
2023-02-27T04:32:49.863Z,99.90
2023-02-27T04:35:30.885Z,99.90
2023-02-27T04:38:09.771Z,99.90
2023-02-27T04:40:43.464Z,99.90
2023-02-27T04:43:13.680Z,99.90
2023-02-27T04:45:43.071Z,99.90
2023-02-27T04:48:46.302Z,99.90
2023-02-27T04:51:17.276Z,99.90
2023-02-27T04:53:59.172Z,99.90
2023-02-27T04:56:34.701Z,99.90
2023-02-27T04:59:06.489Z,99.90
2023-02-27T05:01:41.400Z,99.90
2023-02-27T05:04:13.874Z,99.90
2023-02-27T05:06:43.198Z,99.90
2023-02-27T05:09:35.621Z,99.90
2023-02-27T05:12:21.580Z,99.90
2023-02-27T05:15:08.511Z,99.90
2023-02-27T05:17:59.903Z,99.90
2023-02-27T05:20:52.063Z,99.90
2023-02-27T05:23:37.115Z,99.90
2023-02-27T05:26:20.058Z,99.90
2023-02-27T05:29:02.545Z,99.90
2023-02-27T05:31:40.795Z,99.90
2023-02-27T05:34:12.870Z,99.90
2023-02-27T05:37:06.007Z,99.90
2023-02-27T05:39:37.555Z,99.90
2023-02-27T05:42:09.761Z,99.90
2023-02-27T05:44:42.264Z,99.90
2023-02-27T05:47:13.469Z,99.90
2023-02-27T05:50:08.609Z,99.90
2023-02-27T05:52:37.464Z,99.90
2023-02-27T05:55:30.179Z,99.90
2023-02-27T05:58:03.545Z,99.90
2023-02-27T06:00:44.130Z,99.90
2023-02-27T06:03:12.542Z,99.90
2023-02-27T06:05:42.094Z,99.90
2023-02-27T06:08:09.998Z,99.90
2023-02-27T06:10:38.110Z,99.90
2023-02-27T06:13:05.504Z,99.90
2023-02-27T06:15:32.825Z,99.90
2023-02-27T06:18:00.241Z,99.90
2023-02-27T06:20:27.768Z,99.90
2023-02-27T06:22:55.050Z,99.90
2023-02-27T06:25:22.336Z,99.90
2023-02-27T06:27:50.089Z,99.90
2023-02-27T06:30:17.698Z,99.90
2023-02-27T06:32:44.933Z,99.90
2023-02-27T06:35:12.376Z,99.90
2023-02-27T06:37:39.901Z,99.90
2023-02-27T06:40:14.473Z,99.90
2023-02-27T06:42:45.087Z,99.90
2023-02-27T06:45:14.163Z,99.90
2023-02-27T06:47:42.465Z,99.90
2023-02-27T06:50:11.783Z,99.90
2023-02-27T06:52:40.281Z,99.90
2023-02-27T06:55:08.919Z,98.60
2023-02-27T06:57:36.436Z,98.50
2023-02-27T07:00:06.813Z,99.20
2023-02-27T07:02:34.158Z,99.90
2023-02-27T07:05:05.293Z,99.80
2023-02-27T07:07:38.034Z,99.70
2023-02-27T07:10:08.281Z,99.00
2023-02-27T07:12:35.699Z,98.70
2023-02-27T07:15:03.030Z,99.40
2023-02-27T07:17:31.899Z,99.90
2023-02-27T07:19:59.114Z,99.90
2023-02-27T07:22:26.459Z,99.90
2023-02-27T07:24:53.817Z,99.90
2023-02-27T07:27:21.142Z,99.90
2023-02-27T07:29:48.430Z,99.90
2023-02-27T07:32:15.964Z,99.90
2023-02-27T07:34:43.442Z,99.90
2023-02-27T07:37:10.858Z,99.90
2023-02-27T07:39:38.140Z,99.90
2023-02-27T07:42:07.028Z,99.90
2023-02-27T07:44:34.558Z,99.90
2023-02-27T07:47:02.190Z,99.90
2023-02-27T07:49:29.724Z,99.90
2023-02-27T07:51:57.291Z,99.90
2023-02-27T07:54:27.854Z,99.90
2023-02-27T07:56:55.248Z,99.90
2023-02-27T07:59:22.545Z,99.80
2023-02-27T08:01:49.884Z,98.90
2023-02-27T08:04:17.171Z,97.30
2023-02-27T08:06:44.918Z,95.40
2023-02-27T08:09:12.355Z,92.80
2023-02-27T08:11:39.675Z,90.90
2023-02-27T08:14:07.561Z,91.80
2023-02-27T08:16:34.860Z,90.70
2023-02-27T08:19:03.039Z,88.00
2023-02-27T08:21:30.971Z,85.20
2023-02-27T08:23:58.670Z,84.70
2023-02-27T08:26:26.523Z,81.50
2023-02-27T08:28:54.262Z,81.30
2023-02-27T08:31:21.549Z,81.20
2023-02-27T08:33:55.310Z,78.50
2023-02-27T08:36:25.715Z,78.40
2023-02-27T08:38:53.311Z,77.70
2023-02-27T08:41:20.601Z,74.30
2023-02-27T08:43:47.969Z,73.90
2023-02-27T08:46:16.055Z,73.10
2023-02-27T08:48:44.074Z,71.90
2023-02-27T08:51:11.472Z,71.30
2023-02-27T08:53:38.724Z,69.40
2023-02-27T08:56:06.303Z,71.40
2023-02-27T08:58:36.051Z,66.50
2023-02-27T09:01:04.105Z,67.70
2023-02-27T09:03:31.732Z,66.10
2023-02-27T09:05:59.044Z,65.10
2023-02-27T09:08:26.390Z,64.00
2023-02-27T09:10:57.291Z,65.70
2023-02-27T09:13:24.658Z,64.40
2023-02-27T09:15:52.004Z,64.70
2023-02-27T09:18:19.377Z,64.30
2023-02-27T09:20:46.815Z,62.10
2023-02-27T09:23:14.414Z,61.70
2023-02-27T09:25:41.760Z,60.10
2023-02-27T09:28:09.147Z,61.20
2023-02-27T09:30:36.533Z,64.30
2023-02-27T09:33:03.951Z,66.40
2023-02-27T09:35:31.268Z,71.60
2023-02-27T09:37:58.913Z,72.10
2023-02-27T09:40:30.065Z,74.10
2023-02-27T09:43:04.164Z,75.10
2023-02-27T09:45:39.349Z,78.20
2023-02-27T09:48:18.667Z,79.10
2023-02-27T09:50:49.891Z,81.20
2023-02-27T09:53:33.623Z,82.80
2023-02-27T09:56:17.672Z,83.90
2023-02-27T09:58:52.156Z,82.40
2023-02-27T10:01:54.016Z,82.50
2023-02-27T10:04:35.438Z,82.60
2023-02-27T10:07:27.566Z,80.80
2023-02-27T10:10:20.868Z,79.00
2023-02-27T10:12:55.208Z,77.60
2023-02-27T10:15:50.301Z,75.30
2023-02-27T10:19:06.945Z,73.70
2023-02-27T10:21:55.746Z,68.20
2023-02-27T10:24:49.525Z,68.40
2023-02-27T10:27:20.077Z,67.70
2023-02-27T10:29:47.482Z,67.40
2023-02-27T10:32:18.741Z,66.00
2023-02-27T10:35:10.534Z,65.60
2023-02-27T10:37:45.745Z,65.70
2023-02-27T10:40:16.162Z,65.20
2023-02-27T10:42:43.935Z,63.20
2023-02-27T10:45:16.017Z,63.70
2023-02-27T10:47:44.402Z,63.30
2023-02-27T10:50:30.338Z,65.00
2023-02-27T10:53:00.621Z,64.50
2023-02-27T10:55:32.628Z,63.20
2023-02-27T10:58:01.361Z,63.60
2023-02-27T11:00:58.151Z,64.30
2023-02-27T11:03:31.532Z,63.60
2023-02-27T11:06:20.049Z,63.90
2023-02-27T11:09:10.349Z,62.50
2023-02-27T11:11:38.146Z,63.80
2023-02-27T11:14:20.366Z,63.30
2023-02-27T11:16:51.078Z,62.30
2023-02-27T11:19:35.570Z,61.80
2023-02-27T11:22:07.413Z,61.00
2023-02-27T11:24:35.313Z,60.40
2023-02-27T11:27:06.457Z,59.20
2023-02-27T11:29:36.745Z,57.90
2023-02-27T11:32:15.289Z,56.80
2023-02-27T11:34:50.091Z,57.20
2023-02-27T11:37:23.569Z,56.80
2023-02-27T11:40:00.000Z,55.60
2023-02-27T11:42:32.546Z,54.00
2023-02-27T11:46:21.587Z,53.40
2023-02-27T11:48:23.043Z,54.30
2023-02-27T11:51:17.041Z,52.60
2023-02-27T11:54:06.026Z,52.70
2023-02-27T11:56:39.328Z,52.90
2023-02-27T11:59:27.851Z,52.00
2023-02-27T12:02:19.551Z,51.00
2023-02-27T12:05:10.075Z,51.40
2023-02-27T12:07:55.764Z,51.90
2023-02-27T12:10:29.982Z,50.20
2023-02-27T12:13:19.710Z,49.70
2023-02-27T12:16:16.664Z,48.30
2023-02-27T12:19:02.006Z,47.80
2023-02-27T12:21:33.792Z,47.60
2023-02-27T12:24:00.961Z,45.80
2023-02-27T12:26:40.990Z,46.70
2023-02-27T12:29:14.297Z,47.00
2023-02-27T12:31:53.501Z,47.20
2023-02-27T12:34:27.363Z,46.60
2023-02-27T12:36:56.744Z,47.40
2023-02-27T12:39:25.687Z,45.40
2023-02-27T12:42:02.076Z,46.10
2023-02-27T12:44:48.121Z,45.60
2023-02-27T12:47:20.061Z,44.80
2023-02-27T12:50:18.398Z,43.60
2023-02-27T12:53:01.083Z,44.20
2023-02-27T12:55:38.048Z,44.70
2023-02-27T12:58:15.295Z,44.10
2023-02-27T13:00:51.465Z,43.20
2023-02-27T13:03:27.877Z,41.50
2023-02-27T13:06:03.076Z,41.70
2023-02-27T13:08:43.320Z,41.90
2023-02-27T13:11:47.102Z,41.70
2023-02-27T13:14:32.038Z,40.80
2023-02-27T13:17:38.384Z,41.20
2023-02-27T13:20:26.728Z,40.90
2023-02-27T13:23:15.548Z,41.60
2023-02-27T13:25:51.570Z,40.70
2023-02-27T13:28:29.460Z,41.50
2023-02-27T13:31:40.988Z,41.40
2023-02-27T13:34:14.640Z,41.70
2023-02-27T13:36:46.709Z,40.60
2023-02-27T13:39:48.918Z,41.30
2023-02-27T13:42:28.264Z,42.20
2023-02-27T13:45:01.536Z,42.40
2023-02-27T13:47:31.577Z,42.10
2023-02-27T13:50:01.662Z,42.40
2023-02-27T13:52:35.191Z,42.10
2023-02-27T13:55:11.940Z,43.10
2023-02-27T13:57:39.768Z,42.50
2023-02-27T14:00:26.592Z,42.40
2023-02-27T14:03:00.364Z,43.00
2023-02-27T14:05:38.403Z,42.80
2023-02-27T14:08:20.087Z,41.90
2023-02-27T14:11:22.951Z,42.00
2023-02-27T14:13:50.169Z,42.10
2023-02-27T14:16:42.035Z,42.30
2023-02-27T14:19:22.836Z,42.20
2023-02-27T14:22:11.313Z,42.30
2023-02-27T14:24:49.693Z,42.10
2023-02-27T14:27:27.746Z,42.30
2023-02-27T14:29:58.871Z,42.70
2023-02-27T14:32:32.781Z,42.30
2023-02-27T14:35:03.216Z,42.10
2023-02-27T14:37:30.868Z,42.30
2023-02-27T14:40:03.308Z,42.10
2023-02-27T14:42:55.507Z,41.60
2023-02-27T14:45:25.244Z,41.60
2023-02-27T14:47:53.742Z,41.80
2023-02-27T14:50:40.426Z,42.00
2023-02-27T14:53:21.666Z,41.60
2023-02-27T14:56:00.581Z,41.50
2023-02-27T14:58:28.441Z,41.50
2023-02-27T15:01:11.150Z,41.50
2023-02-27T15:03:47.915Z,40.80
2023-02-27T15:06:37.221Z,41.30
2023-02-27T15:09:05.064Z,41.40
2023-02-27T15:11:32.481Z,41.50
2023-02-27T15:14:03.263Z,41.30
2023-02-27T15:16:39.342Z,40.80
2023-02-27T15:19:17.661Z,40.90
2023-02-27T15:21:51.356Z,41.00
2023-02-27T15:24:23.542Z,41.20
2023-02-27T15:26:56.173Z,41.40
2023-02-27T15:29:26.407Z,41.40
2023-02-27T15:31:54.442Z,41.40
2023-02-27T15:34:21.819Z,40.90
2023-02-27T15:36:55.460Z,40.10
2023-02-27T15:39:25.820Z,40.10
2023-02-27T15:41:56.736Z,40.70
2023-02-27T15:44:50.282Z,40.60
2023-02-27T15:47:25.447Z,40.70
2023-02-27T15:50:19.185Z,40.90
2023-02-27T15:53:04.614Z,41.20
2023-02-27T15:55:36.026Z,41.30
2023-02-27T15:58:03.953Z,41.50
2023-02-27T16:00:34.725Z,40.90
2023-02-27T16:03:02.377Z,41.00
2023-02-27T16:05:41.699Z,41.00
2023-02-27T16:08:18.277Z,41.00
2023-02-27T16:10:46.812Z,40.90
2023-02-27T16:13:31.677Z,41.20
2023-02-27T16:16:05.719Z,41.10
2023-02-27T16:18:46.051Z,40.90
2023-02-27T16:21:21.573Z,40.70
2023-02-27T16:23:49.021Z,40.90
2023-02-27T16:26:29.304Z,40.20
2023-02-27T16:29:05.070Z,40.00
2023-02-27T16:31:33.501Z,40.00
2023-02-27T16:34:13.383Z,40.30
2023-02-27T16:36:42.354Z,40.10
2023-02-27T16:39:18.624Z,40.50
2023-02-27T16:41:45.863Z,40.50
2023-02-27T16:44:13.043Z,40.70
2023-02-27T16:46:40.264Z,40.70
2023-02-27T16:49:22.543Z,40.60
2023-02-27T16:51:50.150Z,40.70
2023-02-27T16:54:18.018Z,40.40
2023-02-27T16:56:47.377Z,40.30
2023-02-27T16:59:33.957Z,40.00
2023-02-27T17:02:03.912Z,40.10
2023-02-27T17:04:31.735Z,40.30
2023-02-27T17:07:00.941Z,40.30
2023-02-27T17:09:29.390Z,40.70
2023-02-27T17:11:57.570Z,40.90
2023-02-27T17:14:25.111Z,41.00
2023-02-27T17:16:52.527Z,41.20
2023-02-27T17:19:21.583Z,41.30
2023-02-27T17:21:49.194Z,41.40
2023-02-27T17:24:16.479Z,41.70
2023-02-27T17:26:43.809Z,41.70
2023-02-27T17:29:12.195Z,41.90
2023-02-27T17:31:39.501Z,41.90
2023-02-27T17:34:08.983Z,42.20
2023-02-27T17:36:36.898Z,42.50
2023-02-27T17:39:05.079Z,42.80
2023-02-27T17:41:33.104Z,42.80
2023-02-27T17:44:01.906Z,43.30
2023-02-27T17:46:31.235Z,43.50
2023-02-27T17:49:01.921Z,43.80
2023-02-27T17:51:31.109Z,44.30
2023-02-27T17:54:02.311Z,44.70
2023-02-27T17:56:30.017Z,45.20
2023-02-27T17:58:57.812Z,45.40
2023-02-27T18:01:26.322Z,45.50
2023-02-27T18:03:55.014Z,45.40
2023-02-27T18:06:23.386Z,45.40
2023-02-27T18:08:51.100Z,45.50
2023-02-27T18:11:20.235Z,45.50
2023-02-27T18:13:48.567Z,45.30
2023-02-27T18:16:15.965Z,45.30
2023-02-27T18:18:43.928Z,45.40
2023-02-27T18:21:15.083Z,45.70
2023-02-27T18:23:43.553Z,45.90
2023-02-27T18:26:28.852Z,46.20
2023-02-27T18:29:07.134Z,46.50
2023-02-27T18:31:45.322Z,46.70
2023-02-27T18:34:13.832Z,47.00
2023-02-27T18:36:41.042Z,47.20
2023-02-27T18:39:08.944Z,47.30
2023-02-27T18:41:36.448Z,47.20
2023-02-27T18:44:04.612Z,47.30
2023-02-27T18:46:32.948Z,47.00
2023-02-27T18:49:00.431Z,47.40
2023-02-27T18:51:27.964Z,47.30
2023-02-27T18:53:55.499Z,47.50
2023-02-27T18:56:26.842Z,47.70
2023-02-27T18:58:57.381Z,47.80
2023-02-27T19:01:27.915Z,48.00
2023-02-27T19:04:00.538Z,48.10
2023-02-27T19:06:28.737Z,48.00
2023-02-27T19:08:56.156Z,48.10
2023-02-27T19:11:25.781Z,48.40
2023-02-27T19:13:53.251Z,48.50
2023-02-27T19:16:20.594Z,48.20
2023-02-27T19:18:48.029Z,48.40
2023-02-27T19:21:15.358Z,48.70
2023-02-27T19:23:43.455Z,48.90
2023-02-27T19:26:10.752Z,49.00
2023-02-27T19:28:37.934Z,49.30
2023-02-27T19:31:10.012Z,49.60
2023-02-27T19:33:37.862Z,49.70
2023-02-27T19:36:10.421Z,49.60
2023-02-27T19:38:37.816Z,49.80
2023-02-27T19:41:07.526Z,50.10
2023-02-27T19:43:36.387Z,50.00
2023-02-27T19:46:12.539Z,50.20
2023-02-27T19:48:40.438Z,50.40
2023-02-27T19:51:10.196Z,50.20
2023-02-27T19:53:39.154Z,50.20
2023-02-27T19:56:13.282Z,50.20
2023-02-27T19:58:40.956Z,50.00
2023-02-27T20:01:08.494Z,50.10
2023-02-27T20:03:36.822Z,50.10
2023-02-27T20:06:06.533Z,50.10
2023-02-27T20:08:35.062Z,50.00
2023-02-27T20:11:04.272Z,50.20
2023-02-27T20:13:32.109Z,50.60
2023-02-27T20:16:05.334Z,50.50
2023-02-27T20:18:33.441Z,50.60
2023-02-27T20:21:10.361Z,50.80
2023-02-27T20:23:39.875Z,50.80
2023-02-27T20:26:20.835Z,51.00
2023-02-27T20:28:49.950Z,51.10
2023-02-27T20:31:21.361Z,51.10
2023-02-27T20:33:49.385Z,51.30
2023-02-27T20:36:17.728Z,51.20
2023-02-27T20:38:45.160Z,51.30
2023-02-27T20:41:18.230Z,51.20
2023-02-27T20:43:48.789Z,51.10
2023-02-27T20:46:24.077Z,50.90
2023-02-27T20:48:51.714Z,50.60
2023-02-27T20:51:22.566Z,50.30
2023-02-27T20:53:52.696Z,49.90
2023-02-27T20:56:25.807Z,49.10
2023-02-27T20:58:54.288Z,49.00
2023-02-27T21:01:22.424Z,49.00
2023-02-27T21:03:54.242Z,48.60
2023-02-27T21:06:22.385Z,48.50
2023-02-27T21:08:55.023Z,48.60
2023-02-27T21:11:28.660Z,48.50
2023-02-27T21:14:02.650Z,48.60
2023-02-27T21:16:32.624Z,49.00
2023-02-27T21:19:01.761Z,49.40
2023-02-27T21:21:31.856Z,49.70
2023-02-27T21:23:59.908Z,50.10
2023-02-27T21:26:35.224Z,50.70
2023-02-27T21:29:09.268Z,50.90
2023-02-27T21:31:39.113Z,51.40
2023-02-27T21:34:08.892Z,51.80
2023-02-27T21:36:42.402Z,52.20
2023-02-27T21:39:13.879Z,52.20
2023-02-27T21:41:41.319Z,52.70
2023-02-27T21:44:09.629Z,52.60
2023-02-27T21:46:36.940Z,52.10
2023-02-27T21:49:04.281Z,51.80
2023-02-27T21:51:41.102Z,51.80
2023-02-27T21:54:24.378Z,51.00
2023-02-27T21:57:25.621Z,50.20
2023-02-27T22:00:23.496Z,50.00
2023-02-27T22:03:03.540Z,50.30
2023-02-27T22:05:47.254Z,50.90
2023-02-27T22:08:26.600Z,51.50
2023-02-27T22:10:59.070Z,51.70
2023-02-27T22:13:27.185Z,52.30
2023-02-27T22:15:56.615Z,52.50
2023-02-27T22:18:27.627Z,52.50
2023-02-27T22:20:57.199Z,53.50
2023-02-27T22:23:29.600Z,54.10
2023-02-27T22:26:12.941Z,54.20
2023-02-27T22:28:43.567Z,54.40
2023-02-27T22:31:20.188Z,54.40
2023-02-27T22:33:49.782Z,55.20
2023-02-27T22:36:25.755Z,55.60
2023-02-27T22:38:53.551Z,56.20
2023-02-27T22:41:27.520Z,57.10
2023-02-27T22:44:05.266Z,57.50
2023-02-27T22:46:35.931Z,58.00
2023-02-27T22:49:15.745Z,58.40
2023-02-27T22:51:43.191Z,58.60
2023-02-27T22:54:13.396Z,58.60
2023-02-27T22:57:01.359Z,58.70
2023-02-27T22:59:46.004Z,59.30
2023-02-27T23:02:14.756Z,59.10
2023-02-27T23:04:41.979Z,59.20
2023-02-27T23:07:09.517Z,59.00
2023-02-27T23:09:37.056Z,59.10
2023-02-27T23:12:04.603Z,59.20
2023-02-27T23:14:31.973Z,59.50
2023-02-27T23:16:59.315Z,59.20
2023-02-27T23:19:26.511Z,59.20
2023-02-27T23:21:53.685Z,59.90
2023-02-27T23:24:20.969Z,60.00
2023-02-27T23:26:50.234Z,59.70
2023-02-27T23:29:18.616Z,60.00
2023-02-27T23:31:45.880Z,61.10
2023-02-27T23:34:13.469Z,62.60
2023-02-27T23:36:40.981Z,63.40
2023-02-27T23:39:08.546Z,64.10
2023-02-27T23:41:36.059Z,64.20
2023-02-27T23:44:21.849Z,65.10
2023-02-27T23:46:51.850Z,66.10
2023-02-27T23:49:19.288Z,66.90
2023-02-27T23:51:46.506Z,67.50
2023-02-27T23:54:13.899Z,67.70
2023-02-27T23:56:41.031Z,68.20
2023-02-27T23:59:08.303Z,68.10
